Time;durP1;ratioP1;P1;durP2;ratioP2;P2;SDS_P1;SDS_P2;PMS_P1;PMS_P2;Temp;Humidity;BMP_temperature;BMP_pressure;BME280_temperature;BME280_humidity;BME280_pressure;Samples;Min_cycle;Max_cycle;Signal;HPM_P1;HPM_P2
2023/07/09 00:00:00;;;;;;;13.90;5.25;;;;;;;17.31;75.21;96485.75;2106236;28;20070;-57
2023/07/09 00:01:01;;;;;;;11.05;5.65;;;;;;;17.31;75.18;96491.00;2115226;28;20482;-57
2023/07/09 00:02:02;;;;;;;12.15;6.40;;;;;;;17.23;74.99;96468.84;2105623;28;20098;-58
2023/07/09 00:03:03;;;;;;;12.32;5.63;;;;;;;17.30;75.51;96480.63;2105981;28;20047;-57
2023/07/09 00:04:04;;;;;;;12.82;5.95;;;;;;;17.23;75.57;96474.94;2115296;28;20119;-57
2023/07/09 00:05:13;;;;;;;12.60;5.38;;;;;;;17.20;75.41;96480.38;2115465;28;20036;-58
2023/07/09 00:06:14;;;;;;;12.95;5.43;;;;;;;17.28;75.36;96482.50;2105646;28;20048;-58
2023/07/09 00:07:30;;;;;;;10.45;5.57;;;;;;;17.25;75.54;96486.16;2106787;28;20051;-58
2023/07/09 00:08:31;;;;;;;11.30;5.93;;;;;;;17.27;75.22;96492.16;2097239;28;20053;-58
2023/07/09 00:09:32;;;;;;;10.95;5.68;;;;;;;17.26;75.29;96489.63;2089588;28;20432;-58
2023/07/09 00:10:34;;;;;;;15.52;5.60;;;;;;;17.17;74.96;96470.94;2106029;28;20044;-57
2023/07/09 00:11:35;;;;;;;10.80;5.43;;;;;;;17.26;74.07;96495.72;2114360;28;20495;-58
2023/07/09 00:12:37;;;;;;;10.70;5.93;;;;;;;17.26;74.49;96493.09;2114389;28;20062;-57
2023/07/09 00:13:38;;;;;;;10.88;5.78;;;;;;;17.27;74.92;96492.16;2114982;28;20074;-58
2023/07/09 00:14:39;;;;;;;9.95;5.55;;;;;;;17.26;75.00;96493.09;2114062;28;20514;-57
2023/07/09 00:15:40;;;;;;;19.70;6.70;;;;;;;17.25;74.41;96494.03;2114582;28;20059;-58
2023/07/09 00:16:44;;;;;;;11.70;5.32;;;;;;;17.25;74.50;96499.28;2105516;28;20059;-57
2023/07/09 00:17:45;;;;;;;10.35;5.10;;;;;;;17.24;74.21;96491.50;2105887;28;20052;-57
2023/07/09 00:18:48;;;;;;;11.35;5.00;;;;;;;17.23;73.77;96493.28;2115114;28;20059;-58
2023/07/09 00:19:49;;;;;;;10.75;6.00;;;;;;;17.23;74.12;96495.09;2115013;28;20036;-57
2023/07/09 00:20:50;;;;;;;9.80;5.38;;;;;;;17.20;73.60;96496.97;2113969;28;20055;-58
2023/07/09 00:21:54;;;;;;;11.13;5.60;;;;;;;17.19;74.23;96492.66;2115227;28;20051;-57
2023/07/09 00:22:57;;;;;;;10.77;5.35;;;;;;;17.16;74.16;96487.63;2114237;28;20039;-58
2023/07/09 00:24:02;;;;;;;15.68;5.22;;;;;;;17.14;74.02;96488.66;2113853;28;20051;-58
2023/07/09 00:25:04;;;;;;;12.25;5.70;;;;;;;17.14;73.80;96493.91;2114904;28;20047;-57
2023/07/09 00:26:09;;;;;;;11.48;5.13;;;;;;;17.02;73.94;96469.31;2114248;28;20054;-59
2023/07/09 00:27:12;;;;;;;8.98;5.20;;;;;;;17.13;74.09;96489.59;2105329;28;20047;-58
2023/07/09 00:28:17;;;;;;;12.35;4.55;;;;;;;17.11;74.68;96483.63;2088900;28;20053;-58
2023/07/09 00:29:18;;;;;;;9.35;4.93;;;;;;;17.01;73.79;96472.03;2090363;28;20048;-58
2023/07/09 00:30:21;;;;;;;10.75;4.65;;;;;;;17.10;74.50;96495.03;2105809;28;20035;-58
2023/07/09 00:31:23;;;;;;;9.70;5.20;;;;;;;17.08;74.03;96486.44;2114410;28;20051;-58
2023/07/09 00:32:25;;;;;;;11.90;5.72;;;;;;;17.09;74.16;96496.84;2115061;28;20483;-57
2023/07/09 00:33:31;;;;;;;8.85;4.85;;;;;;;17.01;73.98;96479.91;2115112;28;20056;-57
2023/07/09 00:34:33;;;;;;;11.00;5.03;;;;;;;16.97;74.02;96471.38;2097619;28;20531;-57
2023/07/09 00:35:34;;;;;;;7.68;4.85;;;;;;;17.04;73.94;96487.59;2098130;28;20049;-57
2023/07/09 00:36:35;;;;;;;12.50;5.78;;;;;;;17.04;74.16;96496.28;2097478;28;20052;-57
2023/07/09 00:37:36;;;;;;;10.73;5.75;;;;;;;17.17;72.98;96491.09;2097115;28;20577;-58
2023/07/09 00:38:38;;;;;;;11.82;5.50;;;;;;;17.14;73.30;96491.28;2105175;28;20055;-58
2023/07/09 00:39:41;;;;;;;11.00;5.68;;;;;;;17.10;74.03;96492.41;2105761;28;20060;-57
2023/07/09 00:40:59;;;;;;;11.82;5.35;;;;;;;17.07;72.92;96492.63;2113764;28;20055;-58
2023/07/09 00:42:00;;;;;;;12.40;5.85;;;;;;;17.06;73.32;96497.03;2097047;28;20048;-57
2023/07/09 00:43:02;;;;;;;9.40;5.18;;;;;;;17.04;73.47;96496.28;2097478;28;20036;-57
2023/07/09 00:44:24;;;;;;;8.15;5.03;;;;;;;17.04;74.36;96498.06;2114922;28;20035;-57
2023/07/09 00:45:26;;;;;;;12.15;5.07;;;;;;;17.03;73.93;96509.53;2105571;28;20044;-57
2023/07/09 00:46:27;;;;;;;12.75;5.80;;;;;;;17.01;74.23;96506.16;2105603;28;20063;-57
2023/07/09 00:47:50;;;;;;;9.80;5.22;;;;;;;17.02;73.62;96507.81;2104895;28;20040;-57
2023/07/09 00:49:09;;;;;;;9.30;5.93;;;;;;;16.98;73.82;96515.06;2109250;28;20052;-57
2023/07/09 00:50:16;;;;;;;10.18;5.82;;;;;;;16.95;74.50;96510.84;2097664;28;20051;-57
2023/07/09 00:51:21;;;;;;;10.40;5.15;;;;;;;17.00;74.02;96520.19;2090291;28;20481;-57
2023/07/09 00:52:27;;;;;;;12.20;5.50;;;;;;;16.94;74.31;96516.19;2090486;28;20057;-57
2023/07/09 00:53:29;;;;;;;11.93;5.35;;;;;;;16.90;74.56;96519.97;2089873;28;20075;-57
2023/07/09 00:54:37;;;;;;;10.23;5.57;;;;;;;16.92;74.84;96518.91;2081749;28;20053;-57
2023/07/09 00:55:39;;;;;;;9.25;5.05;;;;;;;16.82;74.89;96502.09;2082933;28;20049;-57
2023/07/09 00:56:44;;;;;;;13.40;5.80;;;;;;;16.88;74.76;96524.44;2073261;28;20046;-57
2023/07/09 00:57:55;;;;;;;11.88;5.47;;;;;;;16.77;74.95;96509.41;2073790;28;20046;-56
2023/07/09 00:58:57;;;;;;;9.77;5.85;;;;;;;16.75;75.04;96516.50;2074327;28;20050;-56
2023/07/09 01:00:09;;;;;;;13.13;5.80;;;;;;;16.82;75.26;96530.09;2074228;28;20052;-57
2023/07/09 01:01:11;;;;;;;8.23;4.65;;;;;;;16.67;74.90;96510.88;2093818;28;20049;-58
2023/07/09 01:02:12;;;;;;;12.90;5.65;;;;;;;16.77;75.56;96522.50;2099040;28;20040;-57
2023/07/09 01:03:27;;;;;;;9.68;5.53;;;;;;;16.80;75.33;96529.34;2091261;28;20041;-58
2023/07/09 01:04:28;;;;;;;9.68;5.80;;;;;;;16.79;75.37;96520.66;2108428;28;20051;-58
2023/07/09 01:05:29;;;;;;;11.18;6.25;;;;;;;16.79;76.46;96527.69;2090350;28;20053;-58
2023/07/09 01:06:35;;;;;;;11.50;6.15;;;;;;;16.75;75.71;96524.34;2091047;28;20048;-58
2023/07/09 01:07:36;;;;;;;12.95;6.00;;;;;;;16.74;75.86;96530.56;2083645;28;20057;-58
2023/07/09 01:08:38;;;;;;;11.15;5.53;;;;;;;16.73;75.62;96528.84;2099652;28;20041;-58
2023/07/09 01:09:41;;;;;;;15.32;5.93;;;;;;;16.72;75.86;96528.00;2115862;28;20490;-58
2023/07/09 01:10:42;;;;;;;12.98;5.47;;;;;;;16.71;75.94;96528.97;2116531;28;20043;-58
2023/07/09 01:11:43;;;;;;;10.32;5.43;;;;;;;16.70;76.09;96529.88;2107590;28;20519;-58
2023/07/09 01:12:44;;;;;;;13.00;5.60;;;;;;;16.68;75.53;96525.66;2099063;28;20067;-58
2023/07/09 01:13:46;;;;;;;9.40;4.82;;;;;;;16.59;75.72;96515.78;2099087;28;20048;-59
2023/07/09 01:14:51;;;;;;;10.85;5.75;;;;;;;16.65;76.21;96531.97;2107646;28;20040;-58
2023/07/09 01:15:52;;;;;;;11.73;6.00;;;;;;;16.61;76.08;96525.22;2099030;28;20040;-58
2023/07/09 01:16:59;;;;;;;10.88;5.93;;;;;;;16.62;76.20;96531.31;2091171;28;20041;-58
2023/07/09 01:18:01;;;;;;;12.75;6.40;;;;;;;16.66;75.88;96530.19;2099151;28;20040;-58
2023/07/09 01:19:04;;;;;;;11.23;5.45;;;;;;;16.65;75.79;96529.34;2091123;28;20052;-58
2023/07/09 01:20:08;;;;;;;9.60;5.80;;;;;;;16.53;76.13;96514.38;2106457;28;20048;-58
2023/07/09 01:21:15;;;;;;;9.27;5.00;;;;;;;16.51;76.61;96514.47;2116382;28;20044;-59
2023/07/09 01:22:18;;;;;;;13.15;5.75;;;;;;;16.53;76.90;96520.47;2115821;28;20044;-57
2023/07/09 01:23:19;;;;;;;11.27;7.00;;;;;;;16.50;77.35;96517.22;2115585;28;20047;-58
2023/07/09 01:24:48;;;;;;;11.15;5.25;;;;;;;16.53;76.98;96522.25;2115567;28;20073;-58
2023/07/09 01:25:52;;;;;;;9.23;5.57;;;;;;;16.50;76.49;96519.81;2116702;28;20046;-57
2023/07/09 01:26:54;;;;;;;9.45;5.22;;;;;;;16.48;76.95;96524.31;2107215;28;20040;-58
2023/07/09 01:27:55;;;;;;;11.60;5.40;;;;;;;16.43;77.36;96516.72;2082298;28;20048;-58
2023/07/09 01:29:01;;;;;;;11.05;5.75;;;;;;;16.34;77.68;96514.69;2091665;28;20053;-58
2023/07/09 01:30:06;;;;;;;10.00;5.57;;;;;;;16.32;76.87;96512.16;2116273;28;20043;-59
2023/07/09 01:31:07;;;;;;;13.95;6.22;;;;;;;16.32;77.16;96514.78;2107255;28;20051;-58
2023/07/09 01:32:10;;;;;;;11.40;6.10;;;;;;;16.36;77.40;96525.94;2106900;28;20056;-58
2023/07/09 01:33:11;;;;;;;12.00;5.78;;;;;;;16.35;77.62;96529.47;2098513;28;20049;-58
2023/07/09 01:34:15;;;;;;;11.05;6.13;;;;;;;16.34;77.57;96529.59;2106578;28;20063;-58
2023/07/09 01:35:18;;;;;;;14.20;5.78;;;;;;;16.25;77.56;96518.72;2115798;28;20051;-58
2023/07/09 01:36:22;;;;;;;11.10;6.05;;;;;;;16.30;77.45;96532.41;2115856;28;20473;-57
2023/07/09 01:37:25;;;;;;;12.23;6.35;;;;;;;16.28;78.37;96528.19;2115611;28;20078;-57
2023/07/09 01:38:30;;;;;;;10.00;5.60;;;;;;;16.27;77.98;96537.81;2116265;28;20040;-58
2023/07/09 01:39:31;;;;;;;16.15;6.18;;;;;;;16.18;78.27;96516.59;2115832;28;20047;-59
2023/07/09 01:40:33;;;;;;;9.57;5.82;;;;;;;16.24;78.69;96532.75;2106139;28;20059;-58
2023/07/09 01:41:34;;;;;;;11.15;5.60;;;;;;;16.23;77.84;96535.47;2098917;28;20045;-57
2023/07/09 01:42:36;;;;;;;14.10;6.55;;;;;;;16.25;78.13;96534.47;2106577;28;20146;-58
2023/07/09 01:43:37;;;;;;;12.68;6.05;;;;;;;16.24;78.35;96534.53;2115558;28;20066;-58
2023/07/09 01:44:40;;;;;;;12.15;6.47;;;;;;;16.12;78.69;96519.56;2107420;28;20047;-57
2023/07/09 01:45:41;;;;;;;12.65;5.47;;;;;;;16.19;78.46;96539.22;2099198;28;20130;-58
2023/07/09 01:46:42;;;;;;;10.93;5.85;;;;;;;16.18;78.63;96540.16;2107167;28;20088;-57
2023/07/09 01:47:44;;;;;;;9.90;5.78;;;;;;;16.17;78.12;96535.84;2115592;28;20073;-58
2023/07/09 01:48:45;;;;;;;9.68;5.93;;;;;;;16.16;79.03;96528.94;2106989;28;20063;-58
2023/07/09 01:49:46;;;;;;;11.80;6.03;;;;;;;16.17;79.17;96535.84;2107167;28;20055;-58
2023/07/09 01:50:48;;;;;;;11.70;6.05;;;;;;;16.16;79.03;96526.31;2115386;28;20498;-58
2023/07/09 01:51:50;;;;;;;14.88;6.65;;;;;;;16.16;79.44;96534.16;2115794;28;20044;-57
2023/07/09 01:52:51;;;;;;;12.73;6.22;;;;;;;16.13;78.83;96532.56;2115349;28;20052;-58
2023/07/09 01:53:53;;;;;;;11.55;5.97;;;;;;;16.13;78.83;96532.56;2107169;28;20387;-58
2023/07/09 01:54:54;;;;;;;12.98;6.20;;;;;;;16.14;79.68;96541.25;2099011;28;20048;-58
2023/07/09 01:55:56;;;;;;;12.60;6.38;;;;;;;16.17;79.70;96538.47;2098175;28;20041;-58
2023/07/09 01:57:24;;;;;;;14.23;6.43;;;;;;;16.18;79.24;96532.31;2098774;28;20044;-58
2023/07/09 01:58:25;;;;;;;10.82;6.10;;;;;;;16.15;79.25;96530.72;2101582;28;20459;-58
2023/07/09 01:59:27;;;;;;;12.73;6.38;;;;;;;16.13;79.24;96522.09;2098233;28;20052;-58
2023/07/09 02:00:28;;;;;;;13.98;6.20;;;;;;;16.20;79.53;96538.25;2097862;28;20174;-58
2023/07/09 02:01:29;;;;;;;12.77;6.75;;;;;;;16.19;79.63;96534.81;2098190;28;20048;-58
2023/07/09 02:02:32;;;;;;;11.30;6.60;;;;;;;16.21;79.50;96532.09;2106491;28;20052;-57
2023/07/09 02:03:33;;;;;;;14.25;6.65;;;;;;;16.19;79.46;96532.19;2115251;28;20063;-58
2023/07/09 02:04:34;;;;;;;9.27;6.20;;;;;;;16.19;79.02;96532.19;2115094;28;20060;-58
2023/07/09 02:05:35;;;;;;;13.02;6.97;;;;;;;16.12;79.27;96522.16;2107305;28;20047;-57
2023/07/09 02:06:36;;;;;;;12.95;6.70;;;;;;;16.18;79.49;96533.13;2098407;28;20059;-58
2023/07/09 02:07:37;;;;;;;11.50;6.63;;;;;;;16.17;79.99;96530.59;2106434;28;20526;-57
2023/07/09 02:08:38;;;;;;;13.07;7.20;;;;;;;16.15;79.54;96532.50;2115339;28;20066;-58
2023/07/09 02:09:39;;;;;;;12.93;6.38;;;;;;;16.13;79.88;96531.72;2116035;28;20047;-58
2023/07/09 02:10:43;;;;;;;13.95;6.78;;;;;;;16.10;79.81;96533.59;2107083;28;20044;-57
2023/07/09 02:11:44;;;;;;;11.10;6.38;;;;;;;16.07;80.25;96540.81;2106920;28;20064;-57
2023/07/09 02:12:46;;;;;;;11.30;6.55;;;;;;;16.05;79.74;96534.81;2115537;28;20052;-58
2023/07/09 02:13:47;;;;;;;16.75;6.18;;;;;;;15.99;79.82;96541.28;2106932;28;20059;-58
2023/07/09 02:14:48;;;;;;;11.55;6.53;;;;;;;15.97;80.06;96540.50;2098690;28;20063;-57
2023/07/09 02:15:49;;;;;;;11.48;7.00;;;;;;;15.94;80.10;96535.47;2098787;28;20436;-57
2023/07/09 02:16:52;;;;;;;10.85;6.88;;;;;;;15.93;80.09;96538.16;2099071;28;20044;-58
2023/07/09 02:17:53;;;;;;;10.65;6.70;;;;;;;15.90;80.67;96536.56;2098113;28;20052;-57
2023/07/09 02:18:54;;;;;;;12.05;6.55;;;;;;;15.87;80.87;96534.13;2107052;28;20036;-57
2023/07/09 02:19:55;;;;;;;13.30;6.88;;;;;;;15.86;80.46;96535.09;2115905;28;20036;-59
2023/07/09 02:20:56;;;;;;;10.15;6.18;;;;;;;15.84;81.34;96540.41;2116158;28;20042;-58
2023/07/09 02:21:57;;;;;;;12.82;6.55;;;;;;;15.79;80.94;96539.81;2116045;28;20042;-58
2023/07/09 02:22:58;;;;;;;11.40;6.78;;;;;;;15.77;81.05;96543.47;2115331;28;20424;-59
2023/07/09 02:23:59;;;;;;;12.80;7.13;;;;;;;15.76;81.89;96539.19;2105952;28;20158;-58
2023/07/09 02:25:00;;;;;;;11.90;6.10;;;;;;;15.73;81.66;96537.56;2106898;28;20040;-58
2023/07/09 02:26:01;;;;;;;12.98;5.85;;;;;;;15.73;81.86;96545.44;2115242;28;20479;-57
2023/07/09 02:27:05;;;;;;;11.30;6.55;;;;;;;15.71;81.36;96549.91;2115939;28;20039;-58
2023/07/09 02:28:06;;;;;;;12.90;6.70;;;;;;;15.69;80.92;96540.47;2115200;28;20051;-58
2023/07/09 02:29:07;;;;;;;14.13;6.55;;;;;;;15.66;81.60;96542.31;2107174;28;20048;-57
2023/07/09 02:30:10;;;;;;;13.02;6.55;;;;;;;15.60;81.39;96533.97;2107066;28;20040;-57
2023/07/09 02:31:11;;;;;;;14.65;6.72;;;;;;;15.62;81.52;96539.97;2114953;28;20506;-58
2023/07/09 02:32:22;;;;;;;15.25;6.88;;;;;;;15.61;82.17;96535.63;2115215;28;20048;-57
2023/07/09 02:33:23;;;;;;;9.05;5.85;;;;;;;15.57;81.36;96534.97;2115820;28;20044;-56
2023/07/09 02:34:25;;;;;;;11.88;6.30;;;;;;;15.58;81.77;96541.06;2107004;28;20048;-57
2023/07/09 02:35:26;;;;;;;16.30;6.97;;;;;;;15.59;82.37;96537.53;2106164;28;20052;-56
2023/07/09 02:36:27;;;;;;;12.40;6.63;;;;;;;15.59;81.88;96542.75;2106541;28;20056;-57
2023/07/09 02:37:28;;;;;;;13.70;6.70;;;;;;;15.58;82.31;96538.44;2106090;28;20150;-57
2023/07/09 02:38:29;;;;;;;13.68;6.03;;;;;;;15.59;82.76;96540.97;2105973;28;20094;-57
2023/07/09 02:39:30;;;;;;;11.23;6.43;;;;;;;15.57;82.20;96542.84;2105874;28;20052;-57
2023/07/09 02:40:33;;;;;;;11.68;6.80;;;;;;;15.56;82.15;96545.56;2115945;28;20387;-58
2023/07/09 02:41:34;;;;;;;13.32;6.75;;;;;;;15.55;82.62;96549.09;2115824;28;20130;-58
2023/07/09 02:42:35;;;;;;;14.80;7.15;;;;;;;15.62;82.28;96543.41;2106049;28;20059;-57
2023/07/09 02:43:37;;;;;;;11.85;6.32;;;;;;;15.61;82.23;96543.50;2106840;28;20070;-56
2023/07/09 02:44:38;;;;;;;12.68;6.18;;;;;;;15.62;82.30;96546.03;2106612;28;20056;-60
2023/07/09 02:45:39;;;;;;;13.25;7.13;;;;;;;15.53;82.12;96528.25;2106049;28;20079;-59
2023/07/09 02:46:40;;;;;;;10.18;6.45;;;;;;;15.52;81.96;96531.78;2107128;28;20051;-59
2023/07/09 02:47:41;;;;;;;13.40;6.50;;;;;;;15.56;81.94;96546.41;2106111;28;20056;-60
2023/07/09 02:48:42;;;;;;;11.05;6.45;;;;;;;15.52;82.23;96550.13;2114599;28;20063;-60
2023/07/09 02:49:44;;;;;;;10.13;5.80;;;;;;;15.53;82.46;96543.09;2106061;28;20103;-60
2023/07/09 02:50:45;;;;;;;12.63;5.85;;;;;;;15.53;82.53;96553.56;2098551;28;20455;-60
2023/07/09 02:51:46;;;;;;;13.30;6.82;;;;;;;15.48;82.18;96551.25;2097704;28;20057;-59
2023/07/09 02:52:47;;;;;;;14.85;7.35;;;;;;;15.43;82.65;96540.19;2105752;28;20040;-60
2023/07/09 02:53:48;;;;;;;17.80;6.80;;;;;;;15.48;82.43;96556.47;2115084;28;20463;-61
2023/07/09 02:54:49;;;;;;;13.68;5.90;;;;;;;15.44;82.09;96552.34;2106422;28;20088;-59
2023/07/09 02:55:51;;;;;;;13.15;6.82;;;;;;;15.41;82.54;96553.34;2106631;28;20464;-61
2023/07/09 02:56:52;;;;;;;14.90;6.80;;;;;;;15.34;83.05;96538.97;2114973;28;20055;-60
2023/07/09 02:57:53;;;;;;;12.27;6.45;;;;;;;15.42;83.02;96554.19;2115115;28;20121;-60
2023/07/09 02:58:54;;;;;;;10.48;5.97;;;;;;;15.32;83.14;96543.44;2114595;28;20403;-59
2023/07/09 02:59:55;;;;;;;18.00;7.05;;;;;;;15.40;83.22;96553.47;2106503;28;20048;-59
2023/07/09 03:00:56;;;;;;;11.85;6.68;;;;;;;15.39;83.58;96557.81;2097660;28;20059;-59
2023/07/09 03:01:57;;;;;;;12.25;6.45;;;;;;;15.37;83.42;96557.09;2106150;28;20450;-59
2023/07/09 03:02:58;;;;;;;10.52;6.25;;;;;;;15.37;83.51;96562.31;2106855;28;20043;-59
2023/07/09 03:04:01;;;;;;;8.68;6.07;;;;;;;15.29;83.80;96538.38;2106742;28;20036;-60
2023/07/09 03:05:02;;;;;;;11.38;6.43;;;;;;;15.39;82.99;96556.97;2114910;28;20066;-60
2023/07/09 03:06:05;;;;;;;10.20;5.93;;;;;;;15.38;83.03;96564.00;2115547;28;20042;-60
2023/07/09 03:07:07;;;;;;;10.52;6.60;;;;;;;15.35;83.44;96561.56;2114751;28;20075;-60
2023/07/09 03:08:08;;;;;;;14.02;6.30;;;;;;;15.38;83.72;96563.16;2106780;28;20051;-59
2023/07/09 03:09:09;;;;;;;13.27;6.60;;;;;;;15.35;83.44;96560.72;2105955;28;20056;-60
2023/07/09 03:10:10;;;;;;;10.52;6.10;;;;;;;15.34;83.00;96567.75;2115498;28;20099;-60
2023/07/09 03:11:12;;;;;;;11.15;6.20;;;;;;;15.24;83.51;96542.19;2106466;28;20372;-60
2023/07/09 03:12:13;;;;;;;9.02;5.65;;;;;;;15.25;83.38;96547.31;2105505;28;20157;-59
2023/07/09 03:13:14;;;;;;;10.70;5.85;;;;;;;15.33;83.83;96565.19;2097698;28;20094;-60
2023/07/09 03:14:15;;;;;;;10.50;5.68;;;;;;;15.35;83.43;96565.97;2097367;28;20055;-59
2023/07/09 03:15:16;;;;;;;11.27;5.70;;;;;;;15.36;83.70;96565.03;2106592;28;20054;-60
2023/07/09 03:16:19;;;;;;;9.68;5.85;;;;;;;15.38;83.72;96565.78;2114870;28;20157;-59
2023/07/09 03:17:20;;;;;;;9.50;5.18;;;;;;;15.37;82.73;96557.09;2114811;28;20044;-61
2023/07/09 03:18:22;;;;;;;11.02;5.82;;;;;;;15.35;82.52;96553.72;2114790;28;20362;-60
2023/07/09 03:19:23;;;;;;;11.32;5.97;;;;;;;15.39;83.37;96555.22;2115448;28;20044;-60
2023/07/09 03:20:25;;;;;;;10.73;6.00;;;;;;;15.38;82.79;96561.38;2115484;28;20075;-60
2023/07/09 03:21:26;;;;;;;8.45;5.60;;;;;;;15.34;82.76;96557.28;2106416;28;20497;-60
2023/07/09 03:22:27;;;;;;;11.77;6.13;;;;;;;15.35;82.70;96555.50;2096999;28;20064;-60
2023/07/09 03:23:29;;;;;;;11.07;5.70;;;;;;;15.33;83.10;96550.34;2105993;28;20055;-60
2023/07/09 03:24:30;;;;;;;12.52;6.40;;;;;;;15.32;83.53;96553.91;2114832;28;20118;-59
2023/07/09 03:25:31;;;;;;;11.85;5.97;;;;;;;15.31;83.17;96554.81;2115638;28;20048;-60
2023/07/09 03:26:32;;;;;;;11.75;6.43;;;;;;;15.29;83.21;96555.81;2106278;28;20047;-61
2023/07/09 03:27:33;;;;;;;10.07;5.68;;;;;;;15.30;83.09;96560.16;2098129;28;20056;-60
2023/07/09 03:28:34;;;;;;;11.00;5.82;;;;;;;15.27;82.77;96563.78;2097464;28;20057;-60
2023/07/09 03:29:35;;;;;;;12.45;5.78;;;;;;;15.26;83.31;96561.22;2105933;28;20056;-59
2023/07/09 03:30:46;;;;;;;12.00;6.30;;;;;;;15.19;83.73;96561.59;2114924;28;20048;-60
2023/07/09 03:31:49;;;;;;;13.13;5.82;;;;;;;15.24;83.54;96565.72;2115590;28;20475;-59
2023/07/09 03:32:50;;;;;;;11.32;6.07;;;;;;;15.21;83.45;96574.59;2105388;28;20047;-59
2023/07/09 03:33:51;;;;;;;10.35;5.80;;;;;;;15.20;83.18;96565.88;2106553;28;20043;-60
2023/07/09 03:34:53;;;;;;;10.95;5.88;;;;;;;15.20;82.86;96571.13;2115792;28;20352;-60
2023/07/09 03:35:54;;;;;;;12.20;5.75;;;;;;;15.18;83.54;96570.38;2115233;28;20039;-60
2023/07/09 03:36:55;;;;;;;11.32;5.70;;;;;;;15.17;83.91;96571.28;2106193;28;20059;-60
2023/07/09 03:37:56;;;;;;;11.13;6.07;;;;;;;15.19;83.34;96568.59;2106356;28;20046;-59
2023/07/09 03:38:57;;;;;;;11.95;5.95;;;;;;;15.17;83.25;96565.22;2115440;28;20121;-60
2023/07/09 03:39:58;;;;;;;11.70;5.88;;;;;;;15.17;83.79;96575.69;2114461;28;20047;-60
2023/07/09 03:40:59;;;;;;;13.95;6.10;;;;;;;15.18;83.19;96577.38;2115436;28;20043;-60
2023/07/09 03:42:00;;;;;;;12.65;6.05;;;;;;;15.16;83.83;96580.09;2114411;28;20055;-61
2023/07/09 03:43:01;;;;;;;14.18;6.45;;;;;;;15.05;83.51;96561.53;2114288;28;20467;-60
2023/07/09 03:44:03;;;;;;;9.85;5.72;;;;;;;15.16;83.06;96582.69;2106471;28;20036;-59
2023/07/09 03:45:04;;;;;;;9.13;5.60;;;;;;;15.15;83.33;96585.38;2105593;28;20055;-60
2023/07/09 03:46:05;;;;;;;13.60;6.47;;;;;;;15.14;83.06;96579.31;2114975;28;20062;-60
2023/07/09 03:47:06;;;;;;;11.88;5.88;;;;;;;15.05;83.26;96558.91;2115196;28;20046;-60
2023/07/09 03:48:08;;;;;;;11.48;5.97;;;;;;;15.13;83.81;96585.50;2115338;28;20040;-60
2023/07/09 03:49:09;;;;;;;12.88;6.05;;;;;;;15.14;83.38;96581.94;2105418;28;20522;-60
2023/07/09 03:50:11;;;;;;;12.05;5.80;;;;;;;15.07;83.07;96572.72;2105664;28;20055;-60
2023/07/09 03:51:12;;;;;;;11.63;5.90;;;;;;;15.17;83.87;96588.78;2114382;28;20056;-59
2023/07/09 03:52:13;;;;;;;13.30;5.72;;;;;;;15.16;83.50;96584.47;2115173;28;20047;-59
2023/07/09 03:53:14;;;;;;;13.27;6.03;;;;;;;15.17;83.71;96589.59;2114407;28;20463;-60
2023/07/09 03:54:15;;;;;;;12.55;5.22;;;;;;;15.17;83.76;96589.59;2114578;28;20078;-59
2023/07/09 03:55:17;;;;;;;12.45;5.90;;;;;;;15.10;83.49;96577.81;2115271;28;20051;-59
2023/07/09 03:56:18;;;;;;;13.20;5.68;;;;;;;15.20;83.46;96593.81;2115343;28;20043;-59
2023/07/09 03:57:19;;;;;;;8.75;5.22;;;;;;;15.22;83.15;96590.19;2115130;28;20353;-59
2023/07/09 03:58:20;;;;;;;11.50;6.00;;;;;;;15.18;83.65;96590.44;2114453;28;20060;-59
2023/07/09 03:59:21;;;;;;;12.52;5.95;;;;;;;15.23;83.51;96591.03;2115538;28;20044;-60
2023/07/09 04:00:22;;;;;;;10.65;5.30;;;;;;;15.21;83.55;96585.91;2114591;28;20146;-60
2023/07/09 04:01:24;;;;;;;10.85;5.03;;;;;;;15.30;83.42;96592.38;2115408;28;20043;-60
2023/07/09 04:02:25;;;;;;;11.80;5.43;;;;;;;15.32;83.18;96593.16;2114570;28;20051;-59
2023/07/09 04:03:26;;;;;;;15.57;5.68;;;;;;;15.37;83.42;96592.84;2114409;28;20058;-60
2023/07/09 04:04:27;;;;;;;11.45;5.60;;;;;;;15.38;83.11;96598.03;2115099;28;20040;-60
2023/07/09 04:05:28;;;;;;;9.50;5.63;;;;;;;15.42;82.63;96591.69;2114212;28;20422;-59
2023/07/09 04:06:29;;;;;;;10.73;5.05;;;;;;;15.37;82.89;96583.25;2114356;28;20052;-59
2023/07/09 04:07:30;;;;;;;13.63;5.85;;;;;;;15.49;82.82;96596.56;2113813;28;20048;-59
2023/07/09 04:08:32;;;;;;;13.25;6.20;;;;;;;15.51;82.27;96600.78;2115322;28;20111;-59
2023/07/09 04:09:33;;;;;;;9.98;4.93;;;;;;;15.44;82.39;96579.34;2114048;28;20058;-60
2023/07/09 04:10:34;;;;;;;10.68;5.82;;;;;;;15.55;82.69;96599.66;2114282;28;20058;-59
2023/07/09 04:11:35;;;;;;;10.20;4.95;;;;;;;15.57;82.45;96600.44;2105952;28;20131;-61
2023/07/09 04:12:36;;;;;;;13.35;5.50;;;;;;;15.53;82.49;96583.22;2097470;28;20056;-58
2023/07/09 04:13:38;;;;;;;11.25;5.50;;;;;;;15.62;81.93;96603.63;2097190;28;20071;-59
2023/07/09 04:14:40;;;;;;;10.18;5.45;;;;;;;15.63;81.29;96602.69;2097645;28;20055;-60
2023/07/09 04:15:41;;;;;;;10.65;5.25;;;;;;;15.62;81.80;96593.16;2105990;28;20056;-59
2023/07/09 04:16:42;;;;;;;11.65;5.43;;;;;;;15.70;81.81;96605.84;2114859;28;20150;-60
2023/07/09 04:17:43;;;;;;;14.63;5.22;;;;;;;15.69;81.60;96598.06;2114405;28;20059;-60
2023/07/09 04:18:45;;;;;;;12.93;5.68;;;;;;;15.81;81.13;96602.59;2114146;28;20351;-60
2023/07/09 04:19:46;;;;;;;9.73;5.88;;;;;;;15.86;80.65;96606.63;2114408;28;20043;-61
2023/07/09 04:20:50;;;;;;;9.65;5.97;;;;;;;15.91;80.03;96603.75;2115114;28;20502;-60
2023/07/09 04:21:51;;;;;;;14.07;5.57;;;;;;;15.86;80.72;96590.06;2114895;28;20047;-60
2023/07/09 04:22:52;;;;;;;14.38;5.65;;;;;;;16.00;79.89;96603.19;2114312;28;20047;-60
2023/07/09 04:23:53;;;;;;;9.57;5.05;;;;;;;16.04;79.25;96604.72;2114961;28;20044;-60
2023/07/09 04:24:54;;;;;;;15.80;5.50;;;;;;;16.08;79.00;96606.19;2114787;28;20379;-59
2023/07/09 04:25:55;;;;;;;10.05;5.22;;;;;;;16.13;78.93;96605.94;2115038;28;20046;-59
2023/07/09 04:26:56;;;;;;;10.48;5.38;;;;;;;16.11;78.57;96597.31;2114075;28;20055;-60
2023/07/09 04:27:59;;;;;;;12.18;5.25;;;;;;;16.20;79.02;96609.88;2115057;28;20046;-60
2023/07/09 04:29:00;;;;;;;9.95;5.93;;;;;;;16.23;78.98;96604.44;2115075;28;20486;-59
2023/07/09 04:30:01;;;;;;;11.32;5.20;;;;;;;16.27;78.08;96605.09;2114262;28;20070;-60
2023/07/09 04:31:02;;;;;;;7.20;4.65;;;;;;;16.29;78.05;96609.31;2115129;28;20039;-61
2023/07/09 04:32:07;;;;;;;9.30;5.20;;;;;;;16.31;77.87;96606.63;2115112;28;20062;-61
2023/07/09 04:33:09;;;;;;;15.20;5.45;;;;;;;16.36;77.85;96601.94;2105923;28;20047;-61
2023/07/09 04:34:10;;;;;;;9.98;5.22;;;;;;;16.39;77.60;96611.41;2105007;28;20086;-60
2023/07/09 04:35:12;;;;;;;10.80;5.15;;;;;;;16.39;77.75;96599.13;2114151;28;20062;-62
2023/07/09 04:36:13;;;;;;;11.27;5.40;;;;;;;16.44;77.30;96610.19;2114938;28;20062;-62
2023/07/09 04:37:18;;;;;;;9.50;4.78;;;;;;;16.46;77.20;96608.28;2114778;28;20051;-62
2023/07/09 04:38:19;;;;;;;9.93;5.10;;;;;;;16.51;77.62;96603.59;2114155;28;20411;-62
2023/07/09 04:39:20;;;;;;;11.63;5.05;;;;;;;16.51;77.42;96593.13;2114798;28;20048;-62
2023/07/09 04:40:21;;;;;;;10.13;4.93;;;;;;;16.60;76.48;96610.09;2113683;28;20547;-61
2023/07/09 04:41:22;;;;;;;8.45;5.05;;;;;;;16.66;76.94;96611.47;2114991;28;20055;-61
2023/07/09 04:42:23;;;;;;;10.85;4.82;;;;;;;16.64;76.89;96603.69;2115051;28;20470;-61
2023/07/09 04:43:25;;;;;;;8.02;4.78;;;;;;;16.71;77.32;96599.78;2114209;28;20047;-62
2023/07/09 04:44:26;;;;;;;10.90;5.15;;;;;;;16.75;76.48;96600.41;2114265;28;20047;-62
2023/07/09 04:45:27;;;;;;;13.10;5.30;;;;;;;16.84;76.06;96607.75;2114392;28;20059;-61
2023/07/09 04:46:28;;;;;;;10.63;5.28;;;;;;;16.87;75.39;96606.72;2114278;28;20056;-61
2023/07/09 04:47:29;;;;;;;10.55;4.90;;;;;;;16.89;75.74;96605.69;2115073;28;20043;-61
2023/07/09 04:48:30;;;;;;;11.82;5.13;;;;;;;16.95;75.36;96605.28;2115048;28;20083;-62
2023/07/09 04:49:32;;;;;;;9.57;4.70;;;;;;;16.87;74.87;96580.50;2114759;28;20219;-62
2023/07/09 04:50:33;;;;;;;13.65;4.82;;;;;;;17.01;74.30;96605.84;2113768;28;20043;-62